Time;durP1;ratioP1;P1;durP2;ratioP2;P2;SDS_P1;SDS_P2;PMS_P1;PMS_P2;Temp;Humidity;BMP_temperature;BMP_pressure;BME280_temperature;BME280_humidity;BME280_pressure;Samples;Min_cycle;Max_cycle;Signal;HPM_P1;HPM_P2
2024/01/29 00:01:42;;;;;;;4.50;3.10;;;16.90;40.60;;;;;;5031031;28;20543;-75
2024/01/29 00:04:11;;;;;;;3.67;2.97;;;16.90;40.60;;;;;;5029561;28;20444;-76
2024/01/29 00:06:40;;;;;;;3.07;2.80;;;16.90;40.90;;;;;;5031555;28;20452;-76
2024/01/29 00:09:09;;;;;;;3.20;2.90;;;16.90;40.80;;;;;;5029309;28;20543;-77
2024/01/29 00:11:37;;;;;;;3.30;3.00;;;16.90;41.00;;;;;;5029895;28;20475;-76
2024/01/29 00:14:06;;;;;;;3.20;2.87;;;16.90;41.10;;;;;;5031565;28;20454;-76
2024/01/29 00:16:34;;;;;;;4.67;3.10;;;16.90;41.30;;;;;;5032408;28;20478;-77
2024/01/29 00:19:03;;;;;;;5.40;3.27;;;16.90;41.30;;;;;;5032281;28;20471;-76
2024/01/29 00:21:31;;;;;;;5.07;3.17;;;16.90;41.50;;;;;;5031955;28;20479;-77
2024/01/29 00:24:01;;;;;;;4.70;3.00;;;16.90;41.50;;;;;;5031895;28;20508;-77
2024/01/29 00:26:29;;;;;;;4.13;3.40;;;16.90;41.80;;;;;;5030542;28;20567;-76
2024/01/29 00:28:57;;;;;;;3.77;3.23;;;16.90;41.80;;;;;;5031775;28;20443;-76
2024/01/29 00:31:25;;;;;;;4.13;3.17;;;16.90;41.80;;;;;;5031685;28;20570;-76
2024/01/29 00:33:53;;;;;;;4.53;2.90;;;16.80;41.80;;;;;;5031352;28;20490;-76
2024/01/29 00:36:22;;;;;;;3.63;2.87;;;16.80;42.10;;;;;;5026797;28;20476;-77
2024/01/29 00:38:50;;;;;;;4.33;3.23;;;16.80;42.20;;;;;;5031499;28;20490;-74
2024/01/29 00:41:19;;;;;;;3.57;3.27;;;16.90;42.30;;;;;;5031964;28;20467;-76
2024/01/29 00:43:47;;;;;;;6.40;3.77;;;16.80;42.40;;;;;;5029562;28;20486;-76
2024/01/29 00:46:15;;;;;;;3.73;3.30;;;16.80;42.50;;;;;;5031445;28;20452;-76
2024/01/29 00:48:43;;;;;;;9.30;3.60;;;16.80;42.70;;;;;;5031866;28;20451;-76
2024/01/29 00:51:11;;;;;;;5.97;3.53;;;16.80;42.50;;;;;;5031389;28;20503;-76
2024/01/29 00:53:40;;;;;;;3.57;3.23;;;16.80;42.70;;;;;;5031033;28;20538;-77
2024/01/29 00:56:08;;;;;;;6.53;3.73;;;16.70;42.70;;;;;;5031340;28;20447;-75
2024/01/29 00:58:39;;;;;;;3.57;3.27;;;16.80;42.90;;;;;;5029936;28;21032;-76
2024/01/29 01:01:08;;;;;;;3.87;3.40;;;16.80;43.10;;;;;;5031126;28;20459;-76
2024/01/29 01:03:36;;;;;;;5.17;3.77;;;16.70;42.90;;;;;;5030968;28;20515;-77
2024/01/29 01:06:04;;;;;;;4.60;3.60;;;16.70;43.00;;;;;;5030658;28;20509;-77
2024/01/29 01:08:32;;;;;;;4.30;3.67;;;16.70;43.10;;;;;;5030545;28;20443;-73
2024/01/29 01:11:00;;;;;;;4.67;3.73;;;16.70;43.30;;;;;;5030242;28;20471;-76
2024/01/29 01:13:28;;;;;;;4.97;3.93;;;16.70;43.20;;;;;;5029963;28;20472;-76
2024/01/29 01:15:58;;;;;;;4.77;3.60;;;16.60;43.20;;;;;;5027917;28;20526;-76
2024/01/29 01:18:26;;;;;;;12.40;7.47;;;16.60;43.10;;;;;;5026184;28;20503;-77
2024/01/29 01:20:55;;;;;;;18.00;9.57;;;16.60;43.30;;;;;;5043689;22;20516;-77
2024/01/29 01:23:22;;;;;;;15.00;8.50;;;16.60;43.50;;;;;;5017824;28;20439;-77
2024/01/29 01:25:50;;;;;;;16.90;9.70;;;16.60;43.30;;;;;;5033261;28;20436;-77
2024/01/29 01:28:18;;;;;;;23.60;13.87;;;16.60;43.40;;;;;;5032444;28;20432;-77
2024/01/29 01:30:46;;;;;;;21.30;12.40;;;16.60;43.50;;;;;;5038030;28;20475;-77
2024/01/29 01:33:15;;;;;;;22.63;12.13;;;16.60;43.40;;;;;;5028574;28;20432;-78
2024/01/29 01:35:43;;;;;;;25.37;13.20;;;16.60;43.80;;;;;;5034540;28;20499;-78
2024/01/29 01:38:11;;;;;;;25.73;15.30;;;16.60;43.60;;;;;;5033737;28;20440;-77
2024/01/29 01:40:39;;;;;;;27.47;15.03;;;16.60;43.70;;;;;;5033162;28;20620;-77
2024/01/29 01:43:17;;;;;;;28.60;15.63;;;16.60;43.80;;;;;;5032739;28;20508;-77
2024/01/29 01:45:45;;;;;;;28.70;16.60;;;16.60;43.90;;;;;;5032969;28;20443;-78
2024/01/29 01:48:15;;;;;;;29.80;16.80;;;16.50;43.70;;;;;;5031852;28;20557;-77
2024/01/29 01:50:43;;;;;;;30.10;17.40;;;16.50;43.90;;;;;;5032464;28;20471;-77
2024/01/29 01:53:12;;;;;;;34.20;18.87;;;16.50;43.80;;;;;;5032565;28;20455;-78
2024/01/29 01:55:40;;;;;;;34.53;18.23;;;16.50;44.00;;;;;;5032936;28;20455;-78
2024/01/29 01:58:08;;;;;;;33.07;17.97;;;16.50;43.90;;;;;;5032924;28;20447;-78
2024/01/29 02:00:36;;;;;;;35.20;19.90;;;16.50;44.20;;;;;;5033155;28;20472;-78
2024/01/29 02:03:04;;;;;;;32.67;18.37;;;16.60;44.30;;;;;;5034313;28;20546;-78
2024/01/29 02:05:34;;;;;;;35.67;19.07;;;16.60;44.30;;;;;;5033752;28;20443;-78
2024/01/29 02:08:03;;;;;;;36.87;19.23;;;16.50;44.20;;;;;;5033275;28;20443;-78
2024/01/29 02:10:31;;;;;;;35.10;18.90;;;16.60;44.50;;;;;;5032849;28;20463;-78
2024/01/29 02:12:59;;;;;;;35.13;20.00;;;16.50;44.40;;;;;;5033424;28;20464;-78
2024/01/29 02:15:27;;;;;;;35.53;20.77;;;16.50;44.50;;;;;;5033371;28;20436;-78
2024/01/29 02:17:55;;;;;;;34.83;19.10;;;16.50;44.30;;;;;;5033374;28;20443;-77
2024/01/29 02:20:23;;;;;;;38.97;20.97;;;16.50;44.60;;;;;;5032306;28;20491;-78
2024/01/29 02:22:53;;;;;;;35.90;20.77;;;16.50;44.50;;;;;;5031941;28;20439;-78
2024/01/29 02:25:21;;;;;;;33.70;19.00;;;16.50;44.60;;;;;;5032537;28;20447;-78
2024/01/29 02:27:48;;;;;;;36.47;20.47;;;16.50;44.80;;;;;;5032825;28;20478;-78
2024/01/29 02:30:16;;;;;;;41.30;22.40;;;16.60;44.90;;;;;;5032037;28;20456;-78
2024/01/29 02:32:44;;;;;;;32.73;18.80;;;16.50;44.80;;;;;;5032220;28;20471;-77
2024/01/29 02:35:13;;;;;;;37.60;21.20;;;16.50;45.10;;;;;;5032835;28;20455;-77
2024/01/29 02:37:41;;;;;;;34.97;19.33;;;16.50;44.90;;;;;;5035357;28;20489;-76
2024/01/29 02:40:11;;;;;;;33.70;19.17;;;16.50;45.10;;;;;;5036695;28;20439;-76
2024/01/29 02:42:38;;;;;;;37.20;20.77;;;16.60;45.20;;;;;;5036600;28;20443;-77
2024/01/29 02:45:07;;;;;;;34.50;19.27;;;16.50;45.20;;;;;;5035537;28;20434;-77
2024/01/29 02:47:35;;;;;;;37.57;20.70;;;16.60;45.30;;;;;;5036838;28;20475;-78
2024/01/29 02:50:03;;;;;;;34.13;20.07;;;16.50;45.20;;;;;;5038085;28;20439;-77
2024/01/29 02:52:31;;;;;;;34.87;20.23;;;16.50;45.40;;;;;;5036912;28;20518;-78
2024/01/29 02:54:59;;;;;;;33.73;19.10;;;16.50;45.60;;;;;;5037832;28;20463;-78
2024/01/29 02:57:28;;;;;;;35.20;19.50;;;16.60;45.50;;;;;;5018877;28;20455;-78
2024/01/29 02:59:56;;;;;;;37.33;20.53;;;16.50;45.40;;;;;;5030473;28;20541;-78
2024/01/29 03:02:24;;;;;;;34.20;18.33;;;16.50;45.40;;;;;;5035804;28;20526;-77
2024/01/29 03:04:52;;;;;;;34.97;18.60;;;16.50;45.60;;;;;;5035133;28;20478;-77
2024/01/29 03:07:20;;;;;;;37.10;19.97;;;16.50;45.80;;;;;;5035092;28;20446;-77
2024/01/29 03:09:48;;;;;;;32.37;19.07;;;16.50;45.80;;;;;;5035148;28;20467;-77
2024/01/29 03:12:16;;;;;;;33.63;18.27;;;16.50;45.80;;;;;;5034936;28;20470;-77
2024/01/29 03:14:46;;;;;;;30.30;17.43;;;16.60;46.00;;;;;;5034138;28;20478;-77
2024/01/29 03:17:14;;;;;;;33.53;18.50;;;16.50;45.90;;;;;;5033762;28;20508;-77
2024/01/29 03:19:42;;;;;;;32.80;17.83;;;16.50;45.90;;;;;;5036587;28;20509;-78
2024/01/29 03:22:10;;;;;;;32.00;18.27;;;16.50;46.10;;;;;;5036449;28;20466;-77
2024/01/29 03:24:38;;;;;;;29.90;17.73;;;16.50;46.10;;;;;;5035942;28;20522;-77
2024/01/29 03:27:06;;;;;;;29.00;17.60;;;16.50;46.20;;;;;;5039128;28;20474;-77
2024/01/29 03:29:34;;;;;;;27.10;16.90;;;16.50;46.20;;;;;;5035973;28;20986;-78
2024/01/29 03:32:04;;;;;;;26.47;16.87;;;16.50;46.40;;;;;;5035164;28;20475;-77
2024/01/29 03:34:32;;;;;;;31.87;18.00;;;16.40;46.30;;;;;;5033861;28;20485;-77
2024/01/29 03:37:00;;;;;;;29.60;15.50;;;16.50;46.30;;;;;;5034704;28;20470;-77
2024/01/29 03:39:28;;;;;;;30.03;17.00;;;16.50;46.50;;;;;;5034335;28;20482;-77
2024/01/29 03:41:56;;;;;;;26.80;15.60;;;16.40;46.40;;;;;;5033418;28;20467;-77
2024/01/29 03:44:25;;;;;;;29.07;15.70;;;16.50;46.60;;;;;;5033491;28;20447;-77
2024/01/29 03:46:53;;;;;;;27.20;16.00;;;16.40;46.40;;;;;;5033225;28;20468;-77
2024/01/29 03:49:22;;;;;;;23.30;13.70;;;16.40;46.50;;;;;;5032776;28;20435;-77
2024/01/29 03:51:50;;;;;;;27.70;15.80;;;16.40;46.50;;;;;;5032683;28;20479;-77
2024/01/29 03:54:18;;;;;;;26.40;14.83;;;16.40;46.50;;;;;;5033339;28;20447;-77
2024/01/29 03:56:46;;;;;;;24.63;14.60;;;16.40;46.70;;;;;;5034300;28;20451;-77
2024/01/29 03:59:15;;;;;;;24.50;13.87;;;16.30;46.60;;;;;;5034315;28;20451;-77
2024/01/29 04:01:43;;;;;;;25.60;14.20;;;16.30;46.60;;;;;;5027400;28;20554;-77
2024/01/29 04:04:11;;;;;;;24.07;14.60;;;16.30;46.70;;;;;;5030797;28;20471;-78
2024/01/29 04:06:41;;;;;;;20.73;12.60;;;16.30;46.80;;;;;;5031122;28;20439;-78
2024/01/29 04:09:09;;;;;;;23.33;13.93;;;16.30;46.80;;;;;;5033745;28;20470;-77
2024/01/29 04:11:38;;;;;;;22.63;13.87;;;16.30;46.80;;;;;;5034287;28;20467;-78
2024/01/29 04:14:05;;;;;;;21.90;13.13;;;16.30;46.80;;;;;;5033665;28;20534;-78
2024/01/29 04:16:33;;;;;;;22.07;13.23;;;16.30;46.90;;;;;;5023804;28;20439;-77
2024/01/29 04:19:01;;;;;;;21.60;12.90;;;16.30;46.90;;;;;;5030115;28;20534;-77
2024/01/29 04:21:29;;;;;;;23.23;13.03;;;16.20;46.80;;;;;;5029061;28;20554;-78
2024/01/29 04:23:59;;;;;;;20.87;12.03;;;16.20;46.90;;;;;;5033117;28;20443;-78
2024/01/29 04:26:27;;;;;;;19.27;12.03;;;16.20;47.10;;;;;;5033700;28;20474;-77
2024/01/29 04:28:55;;;;;;;19.67;12.17;;;16.20;46.90;;;;;;5034158;28;20448;-78
2024/01/29 04:31:23;;;;;;;21.97;12.20;;;16.20;47.00;;;;;;5033505;28;20534;-78
2024/01/29 04:33:52;;;;;;;22.10;12.07;;;16.20;47.00;;;;;;5034638;28;20514;-78
2024/01/29 04:36:20;;;;;;;20.30;11.90;;;16.20;47.10;;;;;;5035004;28;20505;-78
2024/01/29 04:38:49;;;;;;;19.80;11.80;;;16.10;46.90;;;;;;5034212;28;20494;-78
2024/01/29 04:41:19;;;;;;;16.80;10.00;;;16.20;47.30;;;;;;5034303;28;20455;-78
2024/01/29 04:43:48;;;;;;;17.83;10.93;;;16.10;47.30;;;;;;5033991;28;20443;-78
2024/01/29 04:46:16;;;;;;;20.33;11.07;;;16.10;47.20;;;;;;5033834;28;20462;-77
2024/01/29 04:48:44;;;;;;;16.80;9.73;;;16.10;47.10;;;;;;5039629;28;20491;-77
2024/01/29 04:51:13;;;;;;;16.80;10.37;;;16.10;47.30;;;;;;5050608;28;20472;-78
2024/01/29 04:53:41;;;;;;;17.47;10.43;;;16.10;47.20;;;;;;5049880;28;20447;-77
2024/01/29 04:56:09;;;;;;;15.20;9.40;;;16.10;47.30;;;;;;5046398;28;20443;-78
2024/01/29 04:58:39;;;;;;;17.77;10.80;;;16.10;47.40;;;;;;5027028;28;20443;-77
2024/01/29 05:01:07;;;;;;;15.40;9.90;;;16.10;47.30;;;;;;5025196;28;20459;-78
2024/01/29 05:03:35;;;;;;;14.10;9.30;;;16.00;47.10;;;;;;5034304;28;20439;-78
2024/01/29 05:06:03;;;;;;;15.10;9.90;;;16.00;47.30;;;;;;5034239;28;20443;-77
2024/01/29 05:08:31;;;;;;;14.70;9.20;;;16.00;47.30;;;;;;5035299;28;20443;-77
2024/01/29 05:10:59;;;;;;;16.90;9.37;;;16.00;47.40;;;;;;5033809;28;20456;-77
2024/01/29 05:13:28;;;;;;;15.33;9.33;;;16.00;47.30;;;;;;5033439;28;20493;-77
2024/01/29 05:15:57;;;;;;;12.50;8.50;;;16.00;47.40;;;;;;5032985;28;21050;-77
2024/01/29 05:18:25;;;;;;;15.63;8.93;;;15.90;47.20;;;;;;5033980;28;20436;-77
2024/01/29 05:20:53;;;;;;;14.23;8.83;;;15.90;47.50;;;;;;5034056;28;21064;-75
2024/01/29 05:23:21;;;;;;;13.30;8.50;;;16.00;47.40;;;;;;5032386;28;20894;-77
2024/01/29 05:25:49;;;;;;;16.20;8.77;;;15.90;47.50;;;;;;5034807;28;20471;-77
2024/01/29 05:28:18;;;;;;;13.33;8.80;;;15.90;47.50;;;;;;5033906;28;20523;-77
2024/01/29 05:30:46;;;;;;;12.70;8.17;;;15.90;47.40;;;;;;5034338;28;20466;-77
2024/01/29 05:33:15;;;;;;;12.23;7.80;;;15.90;47.40;;;;;;5033003;28;20475;-77
2024/01/29 05:35:53;;;;;;;12.97;8.13;;;15.90;47.40;;;;;;5034029;28;20449;-77
2024/01/29 05:38:21;;;;;;;12.30;8.20;;;15.90;47.50;;;;;;5033429;28;20444;-77
2024/01/29 05:40:49;;;;;;;9.83;7.20;;;15.90;47.40;;;;;;5032896;28;20555;-77
2024/01/29 05:43:18;;;;;;;14.53;7.87;;;15.80;47.40;;;;;;5032555;28;20443;-77
2024/01/29 05:45:46;;;;;;;10.30;6.70;;;15.90;47.50;;;;;;5033318;28;20523;-77
2024/01/29 05:48:15;;;;;;;10.00;7.23;;;15.80;47.40;;;;;;5028267;28;20456;-77
2024/01/29 05:50:44;;;;;;;10.27;7.20;;;15.80;47.40;;;;;;5013383;28;20476;-77
2024/01/29 05:53:12;;;;;;;9.17;6.43;;;15.80;47.30;;;;;;5012729;28;20476;-77
2024/01/29 05:55:40;;;;;;;11.70;7.50;;;15.80;47.40;;;;;;5013634;28;20498;-77
2024/01/29 05:58:08;;;;;;;10.27;6.97;;;15.80;47.20;;;;;;5013467;28;20463;-77
2024/01/29 06:00:36;;;;;;;11.63;6.90;;;15.80;47.40;;;;;;5013803;28;20563;-77
2024/01/29 06:03:05;;;;;;;10.33;6.83;;;15.80;47.30;;;;;;5028467;28;20444;-78
2024/01/29 06:05:34;;;;;;;8.43;6.33;;;15.80;47.30;;;;;;5031526;28;20538;-78
2024/01/29 06:08:02;;;;;;;8.50;6.17;;;15.80;47.30;;;;;;5033213;28;20435;-78
2024/01/29 06:10:31;;;;;;;9.10;6.23;;;15.70;47.80;;;;;;5032698;28;20494;-78
2024/01/29 06:12:59;;;;;;;8.90;6.63;;;15.70;47.20;;;;;;5026834;28;20809;-77
2024/01/29 06:15:27;;;;;;;8.63;6.30;;;15.70;47.30;;;;;;5031593;28;20444;-78
2024/01/29 06:17:55;;;;;;;9.33;6.50;;;15.70;47.20;;;;;;5032742;28;20447;-78
2024/01/29 06:20:24;;;;;;;9.70;6.47;;;15.70;47.20;;;;;;5032812;28;20475;-77
2024/01/29 06:22:53;;;;;;;8.13;6.10;;;15.70;47.20;;;;;;5031523;28;20479;-76
2024/01/29 06:25:21;;;;;;;7.30;5.43;;;15.70;47.30;;;;;;5030028;28;20439;-78
2024/01/29 06:27:49;;;;;;;8.57;5.50;;;15.70;47.20;;;;;;5033091;28;20570;-78
2024/01/29 06:30:18;;;;;;;8.80;5.70;;;15.70;47.40;;;;;;5030842;28;20467;-77
2024/01/29 06:32:46;;;;;;;7.77;5.87;;;15.70;47.30;;;;;;5030747;28;20555;-77
2024/01/29 06:35:15;;;;;;;6.97;5.70;;;15.70;47.40;;;;;;5031708;28;20475;-77
2024/01/29 06:37:43;;;;;;;6.80;5.13;;;15.70;47.40;;;;;;5030807;28;20486;-77
2024/01/29 06:40:13;;;;;;;8.80;5.80;;;15.70;47.30;;;;;;5030249;28;20467;-78
2024/01/29 06:42:40;;;;;;;7.40;5.40;;;15.60;47.20;;;;;;5033152;28;20459;-78
2024/01/29 06:45:09;;;;;;;8.50;5.60;;;15.60;47.50;;;;;;5032644;28;20526;-77
2024/01/29 06:47:37;;;;;;;7.10;5.30;;;15.60;47.50;;;;;;5032971;28;20460;-77
2024/01/29 06:50:06;;;;;;;6.40;5.03;;;15.70;47.50;;;;;;5032923;28;20443;-77
2024/01/29 06:52:34;;;;;;;8.23;5.13;;;15.70;47.40;;;;;;5030954;28;20458;-77
2024/01/29 06:55:02;;;;;;;7.27;5.07;;;15.60;47.50;;;;;;5022917;28;20502;-78
2024/01/29 06:57:31;;;;;;;7.20;5.57;;;15.60;47.60;;;;;;5031436;28;20526;-78
2024/01/29 06:59:59;;;;;;;6.37;5.03;;;15.60;47.60;;;;;;5033474;28;20423;-78
2024/01/29 07:02:27;;;;;;;4.87;4.37;;;15.60;47.60;;;;;;5034478;28;20435;-78
2024/01/29 07:04:55;;;;;;;5.47;4.37;;;15.60;47.40;;;;;;5033895;28;20427;-78
2024/01/29 07:07:23;;;;;;;6.80;5.33;;;15.60;47.70;;;;;;5027877;28;20444;-78
2024/01/29 07:09:53;;;;;;;8.10;4.73;;;15.60;47.60;;;;;;5026071;28;20828;-78
2024/01/29 07:12:21;;;;;;;5.30;4.43;;;15.60;47.60;;;;;;5029098;28;20523;-78
2024/01/29 07:14:52;;;;;;;7.47;5.00;;;15.60;47.70;;;;;;5033354;28;20525;-79
2024/01/29 07:17:20;;;;;;;5.70;4.60;;;15.70;47.80;;;;;;5037521;28;20506;-76
2024/01/29 07:19:48;;;;;;;6.13;5.10;;;15.60;47.60;;;;;;5030066;28;20439;-78
2024/01/29 07:22:18;;;;;;;4.60;4.20;;;15.60;47.30;;;;;;5069064;22;20588;-77
2024/01/29 07:24:48;;;;;;;6.70;4.63;;;15.60;47.70;;;;;;5053621;28;20427;-77
2024/01/29 07:27:16;;;;;;;7.50;4.67;;;15.60;47.60;;;;;;5055937;28;20441;-76
2024/01/29 07:29:44;;;;;;;7.00;4.23;;;15.60;47.60;;;;;;5059191;28;20449;-76
2024/01/29 07:32:14;;;;;;;6.40;5.10;;;15.70;47.60;;;;;;5055294;28;20494;-76
2024/01/29 07:34:42;;;;;;;6.23;5.03;;;15.70;47.60;;;;;;5060198;28;20480;-76
2024/01/29 07:37:11;;;;;;;4.97;4.03;;;15.70;47.60;;;;;;5054707;28;20442;-77
2024/01/29 07:39:39;;;;;;;5.80;4.30;;;15.70;47.70;;;;;;5043815;28;20451;-77
2024/01/29 07:42:08;;;;;;;5.13;4.20;;;15.70;47.60;;;;;;5054857;28;20482;-76
2024/01/29 07:44:36;;;;;;;4.50;3.73;;;15.70;47.70;;;;;;5054669;28;20437;-76
2024/01/29 07:47:05;;;;;;;5.13;4.40;;;15.70;47.70;;;;;;5054825;28;20446;-77
2024/01/29 07:49:34;;;;;;;5.10;4.07;;;15.70;47.80;;;;;;5051864;28;20523;-77
2024/01/29 07:52:02;;;;;;;5.80;4.00;;;15.70;47.70;;;;;;5053823;28;20501;-76
2024/01/29 07:54:30;;;;;;;4.53;3.67;;;15.70;47.80;;;;;;5053974;28;20494;-77
2024/01/29 07:56:58;;;;;;;4.70;3.80;;;15.80;47.90;;;;;;5054947;28;20434;-78
2024/01/29 07:59:26;;;;;;;4.10;3.70;;;15.70;47.80;;;;;;5054908;28;20857;-78
2024/01/29 08:01:54;;;;;;;4.50;3.77;;;15.80;48.00;;;;;;5050100;28;20969;-78
2024/01/29 08:04:23;;;;;;;4.00;3.60;;;15.80;47.90;;;;;;5053993;28;20445;-78
2024/01/29 08:06:52;;;;;;;4.10;3.70;;;15.90;48.00;;;;;;5052319;28;20965;-78
2024/01/29 08:09:20;;;;;;;6.47;4.10;;;15.90;48.00;;;;;;5054564;28;20431;-79
2024/01/29 08:11:48;;;;;;;4.57;3.50;;;15.90;48.10;;;;;;5054621;28;20486;-78
2024/01/29 08:14:16;;;;;;;4.73;3.60;;;15.90;48.00;;;;;;5054207;28;20520;-79
2024/01/29 08:16:44;;;;;;;4.93;3.83;;;15.90;48.00;;;;;;5053503;28;20430;-79
2024/01/29 08:19:12;;;;;;;4.70;4.07;;;16.00;48.10;;;;;;5053257;28;20516;-79
2024/01/29 08:21:44;;;;;;;5.07;3.80;;;16.00;48.30;;;;;;5055017;28;20485;-77
2024/01/29 08:24:13;;;;;;;4.40;3.83;;;16.00;48.10;;;;;;5054499;28;20523;-78
2024/01/29 08:26:41;;;;;;;4.13;3.73;;;16.00;48.20;;;;;;5054084;28;20454;-78
2024/01/29 08:29:10;;;;;;;6.63;4.27;;;16.10;48.20;;;;;;5053958;28;20876;-78
2024/01/29 08:31:38;;;;;;;4.87;4.37;;;16.10;48.20;;;;;;5053014;28;20516;-78
2024/01/29 08:34:06;;;;;;;3.90;3.03;;;16.10;48.20;;;;;;5045582;28;20981;-78
2024/01/29 08:36:34;;;;;;;5.27;4.10;;;16.10;48.20;;;;;;5045113;28;20527;-78
2024/01/29 08:39:02;;;;;;;5.20;3.83;;;16.20;48.20;;;;;;5046289;28;20433;-77
2024/01/29 08:41:32;;;;;;;4.60;3.73;;;16.20;48.20;;;;;;5041292;28;20450;-78
2024/01/29 08:44:00;;;;;;;6.00;4.10;;;16.30;48.40;;;;;;5037036;28;20451;-78
2024/01/29 08:46:28;;;;;;;4.93;3.80;;;16.30;48.30;;;;;;5033549;28;20498;-77
2024/01/29 08:48:57;;;;;;;3.60;3.30;;;16.40;48.40;;;;;;5036688;28;20450;-78
2024/01/29 08:51:26;;;;;;;3.77;3.40;;;16.50;48.40;;;;;;5052960;28;20467;-78
2024/01/29 08:53:56;;;;;;;3.90;3.60;;;16.60;48.40;;;;;;5049182;28;20465;-78
2024/01/29 08:56:24;;;;;;;5.23;4.10;;;16.60;48.40;;;;;;5051260;28;20455;-78
2024/01/29 08:58:54;;;;;;;3.97;3.50;;;16.60;48.40;;;;;;5053840;28;20620;-77
2024/01/29 09:01:22;;;;;;;4.33;3.40;;;16.70;48.50;;;;;;5044673;28;20485;-76
2024/01/29 09:03:51;;;;;;;3.60;3.30;;;16.80;48.50;;;;;;5052332;28;20644;-76
2024/01/29 09:06:20;;;;;;;3.90;3.50;;;16.90;48.60;;;;;;5052778;28;20442;-77
2024/01/29 09:08:48;;;;;;;4.20;3.37;;;17.00;48.70;;;;;;5052244;28;20459;-77
2024/01/29 09:11:16;;;;;;;5.03;3.90;;;17.00;48.80;;;;;;5053148;28;20520;-77
2024/01/29 09:13:44;;;;;;;4.30;3.70;;;17.20;48.90;;;;;;5052490;28;20443;-79
2024/01/29 09:16:13;;;;;;;3.63;3.33;;;17.30;49.00;;;;;;5049572;28;20509;-78
2024/01/29 09:18:42;;;;;;;4.37;3.37;;;17.40;49.00;;;;;;5049942;28;20450;-77
2024/01/29 09:21:10;;;;;;;3.80;3.50;;;17.50;49.00;;;;;;5043980;28;20489;-78
2024/01/29 09:23:38;;;;;;;3.30;3.03;;;17.70;49.10;;;;;;5048027;28;20461;-77
2024/01/29 09:26:06;;;;;;;3.27;2.87;;;17.80;48.90;;;;;;5050227;28;20443;-77
2024/01/29 09:28:34;;;;;;;3.70;3.40;;;18.00;48.90;;;;;;5052157;28;20438;-78
2024/01/29 09:31:03;;;;;;;3.60;3.30;;;18.20;48.70;;;;;;5047709;28;20462;-78
2024/01/29 09:33:32;;;;;;;3.50;3.17;;;18.30;48.70;;;;;;5052274;28;20476;-77
2024/01/29 09:36:00;;;;;;;3.87;3.47;;;18.50;48.50;;;;;;5050096;28;20470;-77
2024/01/29 09:38:28;;;;;;;3.77;3.47;;;18.60;48.30;;;;;;5051722;28;20455;-78
2024/01/29 09:40:56;;;;;;;3.80;3.20;;;18.80;48.20;;;;;;5050802;28;20466;-78
2024/01/29 09:43:25;;;;;;;3.77;3.37;;;19.00;48.10;;;;;;5050479;28;20453;-79
2024/01/29 09:45:53;;;;;;;3.30;3.10;;;19.10;47.90;;;;;;5049933;28;20439;-77
2024/01/29 09:48:21;;;;;;;3.17;2.93;;;19.20;47.80;;;;;;5047809;28;20458;-77
2024/01/29 09:50:51;;;;;;;6.20;3.30;;;19.40;47.70;;;;;;5049581;28;20474;-78
2024/01/29 09:53:20;;;;;;;5.77;3.50;;;19.50;47.50;;;;;;5044167;28;20492;-79
2024/01/29 09:55:50;;;;;;;4.33;3.37;;;19.60;47.50;;;;;;5046386;28;20470;-78
2024/01/29 09:58:19;;;;;;;3.90;3.47;;;19.80;47.40;;;;;;5050034;28;20474;-78
2024/01/29 10:00:47;;;;;;;4.80;4.00;;;19.90;47.20;;;;;;5050119;28;20447;-78
2024/01/29 10:03:21;;;;;;;4.17;3.40;;;20.10;47.30;;;;;;5043205;28;20443;-78
2024/01/29 10:05:51;;;;;;;5.40;3.40;;;20.30;47.20;;;;;;5050640;28;20466;-78
2024/01/29 10:08:19;;;;;;;4.00;3.60;;;20.40;47.10;;;;;;5050400;28;20450;-78
2024/01/29 10:10:48;;;;;;;3.63;3.33;;;20.60;47.00;;;;;;5050990;28;20522;-77
2024/01/29 10:13:16;;;;;;;3.43;3.13;;;20.80;46.90;;;;;;5049990;28;20529;-77
2024/01/29 10:15:44;;;;;;;3.70;3.20;;;21.00;46.80;;;;;;5049856;28;20532;-78
2024/01/29 10:18:13;;;;;;;3.60;3.30;;;21.20;46.80;;;;;;5050319;28;20439;-77
2024/01/29 10:20:41;;;;;;;3.30;3.07;;;21.30;46.60;;;;;;5049765;28;20434;-77
2024/01/29 10:23:10;;;;;;;3.30;3.00;;;21.50;46.60;;;;;;5042081;28;20462;-78
2024/01/29 10:25:39;;;;;;;2.90;2.70;;;21.60;46.40;;;;;;5049619;28;20453;-77
2024/01/29 10:28:10;;;;;;;3.13;2.93;;;21.70;46.30;;;;;;5041947;28;20596;-78
2024/01/29 10:30:40;;;;;;;4.87;2.90;;;21.80;46.30;;;;;;5049936;28;20466;-77
2024/01/29 10:33:08;;;;;;;4.23;2.93;;;21.90;46.30;;;;;;5049564;28;20491;-78
2024/01/29 10:35:36;;;;;;;2.97;2.77;;;22.00;46.30;;;;;;5049855;28;20466;-77
2024/01/29 10:38:06;;;;;;;3.30;3.00;;;22.10;46.20;;;;;;5049752;28;20443;-77
2024/01/29 10:40:37;;;;;;;4.33;3.30;;;22.20;46.10;;;;;;5049775;28;20446;-76
2024/01/29 10:43:05;;;;;;;3.30;3.00;;;22.30;46.10;;;;;;5049391;28;20880;-77
2024/01/29 10:45:34;;;;;;;2.93;2.73;;;22.40;46.00;;;;;;5050187;28;20434;-78
2024/01/29 10:48:06;;;;;;;3.10;2.80;;;22.60;46.10;;;;;;5049974;28;20435;-78
2024/01/29 10:50:34;;;;;;;4.00;3.40;;;22.70;46.00;;;;;;5050491;28;20911;-75
2024/01/29 10:53:03;;;;;;;3.23;2.93;;;22.80;46.00;;;;;;5049575;28;20469;-78
2024/01/29 10:55:31;;;;;;;3.07;2.87;;;22.90;45.90;;;;;;5050312;28;20425;-77
2024/01/29 10:58:02;;;;;;;4.30;3.27;;;23.10;45.90;;;;;;5050268;28;20559;-78
2024/01/29 11:00:31;;;;;;;3.50;3.20;;;23.20;45.80;;;;;;5053583;28;20426;-76
2024/01/29 11:02:59;;;;;;;3.07;2.87;;;23.40;45.80;;;;;;5053692;28;20453;-78
2024/01/29 11:05:28;;;;;;;3.20;3.00;;;23.60;45.60;;;;;;5054075;28;20469;-78
2024/01/29 11:07:57;;;;;;;2.83;2.60;;;23.70;45.50;;;;;;5054061;28;20448;-76
2024/01/29 11:10:25;;;;;;;5.53;3.30;;;23.90;45.40;;;;;;5054255;28;20469;-76
2024/01/29 11:12:54;;;;;;;2.93;2.73;;;24.10;45.30;;;;;;5053625;28;20437;-75
2024/01/29 11:15:23;;;;;;;3.67;2.70;;;24.30;45.20;;;;;;5053845;28;20413;-77
2024/01/29 11:17:51;;;;;;;3.20;3.00;;;24.50;45.00;;;;;;5053585;28;20466;-78
2024/01/29 11:20:20;;;;;;;3.13;2.93;;;24.70;44.80;;;;;;5053773;28;20492;-77
2024/01/29 11:22:51;;;;;;;3.27;2.97;;;24.80;44.80;;;;;;5053579;28;20449;-76
2024/01/29 11:25:20;;;;;;;3.00;2.80;;;25.00;44.50;;;;;;5053602;28;20497;-78
2024/01/29 11:27:49;;;;;;;3.13;2.83;;;25.20;44.40;;;;;;5053704;28;20467;-78
2024/01/29 11:30:19;;;;;;;3.30;3.00;;;25.40;44.20;;;;;;5053868;28;20795;-78
2024/01/29 11:32:48;;;;;;;3.10;2.90;;;25.60;43.90;;;;;;5053313;28;20473;-76
2024/01/29 11:35:18;;;;;;;3.33;3.03;;;25.70;43.70;;;;;;5053420;28;20479;-76
2024/01/29 11:38:06;;;;;;;3.10;2.80;;;25.90;43.50;;;;;;5053479;28;20445;-76
2024/01/29 11:40:36;;;;;;;3.03;2.83;;;26.00;43.10;;;;;;5053344;28;20413;-76
2024/01/29 11:43:09;;;;;;;2.60;2.50;;;26.10;43.00;;;;;;5052726;28;20452;-76
2024/01/29 11:45:38;;;;;;;3.70;3.40;;;26.20;42.80;;;;;;5053469;28;20499;-76
2024/01/29 11:48:10;;;;;;;2.97;2.73;;;26.30;42.80;;;;;;5053520;28;20480;-75
2024/01/29 11:50:39;;;;;;;3.07;2.60;;;26.40;42.50;;;;;;5053898;28;20481;-76
2024/01/29 11:53:10;;;;;;;2.83;2.57;;;26.50;42.50;;;;;;5053827;28;20447;-75
2024/01/29 11:55:38;;;;;;;3.63;3.10;;;26.60;42.50;;;;;;5053241;28;20447;-77
2024/01/29 11:58:11;;;;;;;2.97;2.77;;;26.70;42.40;;;;;;5053630;28;20474;-76
2024/01/29 12:00:43;;;;;;;4.47;2.80;;;26.90;42.10;;;;;;5053941;28;20445;-76
2024/01/29 12:03:15;;;;;;;3.07;2.87;;;27.20;42.00;;;;;;5053776;28;20425;-77
2024/01/29 12:05:45;;;;;;;3.93;3.63;;;27.40;41.60;;;;;;5054392;28;20424;-76
2024/01/29 12:08:14;;;;;;;3.50;3.20;;;27.60;41.40;;;;;;5053504;28;20485;-74
2024/01/29 12:10:42;;;;;;;2.80;2.60;;;27.80;41.00;;;;;;5053899;28;20425;-77
2024/01/29 12:13:14;;;;;;;2.97;2.70;;;28.00;40.70;;;;;;5053585;28;20447;-77
2024/01/29 12:15:42;;;;;;;2.80;2.60;;;28.20;40.40;;;;;;5049775;28;20522;-78
2024/01/29 12:18:16;;;;;;;2.90;2.70;;;28.30;40.10;;;;;;5046933;28;20480;-75
2024/01/29 12:20:44;;;;;;;2.97;2.77;;;28.50;39.90;;;;;;5042749;28;20521;-78
2024/01/29 12:23:13;;;;;;;2.87;2.67;;;28.70;39.70;;;;;;5046404;28;20521;-76
2024/01/29 12:25:41;;;;;;;2.77;2.67;;;28.80;39.40;;;;;;5046855;28;20486;-76
2024/01/29 12:28:10;;;;;;;3.43;3.10;;;28.90;39.10;;;;;;5051759;28;20409;-77
2024/01/29 12:30:38;;;;;;;2.90;2.70;;;29.00;38.70;;;;;;5051590;28;20488;-77
2024/01/29 12:33:07;;;;;;;3.10;2.90;;;29.00;38.70;;;;;;5041457;28;20443;-78
2024/01/29 12:35:37;;;;;;;3.30;3.10;;;29.10;38.50;;;;;;5037227;28;20421;-78
2024/01/29 12:38:06;;;;;;;3.10;2.90;;;29.00;38.50;;;;;;5049367;28;20474;-77
2024/01/29 12:40:34;;;;;;;2.93;2.83;;;29.00;38.40;;;;;;5047561;28;20431;-76
2024/01/29 12:43:02;;;;;;;3.07;2.80;;;28.90;38.50;;;;;;5044747;28;20441;-77
2024/01/29 12:45:30;;;;;;;3.17;2.87;;;28.90;38.40;;;;;;5043188;28;20431;-77
2024/01/29 12:48:06;;;;;;;3.60;3.30;;;28.90;38.50;;;;;;5046914;28;20447;-77